sensor_id;sensor_type;location;lat;lon;timestamp;P1;durP1;ratioP1;P2;durP2;ratioP2
48423;SDS011;34232;42.502;26.014;2022-10-24T00:01:49;1.48;;;0.60;;
48423;SDS011;34232;42.502;26.014;2022-10-24T00:04:15;3.03;;;1.20;;
48423;SDS011;34232;42.502;26.014;2022-10-24T00:06:41;5.57;;;1.30;;
48423;SDS011;34232;42.502;26.014;2022-10-24T00:09:06;2.60;;;0.60;;
48423;SDS011;34232;42.502;26.014;2022-10-24T00:11:32;1.60;;;0.80;;
48423;SDS011;34232;42.502;26.014;2022-10-24T00:13:58;7.30;;;0.98;;
48423;SDS011;34232;42.502;26.014;2022-10-24T00:16:25;4.73;;;0.90;;
48423;SDS011;34232;42.502;26.014;2022-10-24T00:18:51;1.73;;;0.60;;
48423;SDS011;34232;42.502;26.014;2022-10-24T00:21:17;3.90;;;1.43;;
48423;SDS011;34232;42.502;26.014;2022-10-24T00:23:42;1.90;;;0.77;;
48423;SDS011;34232;42.502;26.014;2022-10-24T00:26:09;4.10;;;1.13;;
48423;SDS011;34232;42.502;26.014;2022-10-24T00:28:36;1.58;;;0.90;;
48423;SDS011;34232;42.502;26.014;2022-10-24T00:31:03;2.83;;;1.27;;
48423;SDS011;34232;42.502;26.014;2022-10-24T00:33:30;1.90;;;0.90;;
48423;SDS011;34232;42.502;26.014;2022-10-24T00:35:56;5.27;;;2.53;;
48423;SDS011;34232;42.502;26.014;2022-10-24T00:38:21;1.80;;;0.70;;
48423;SDS011;34232;42.502;26.014;2022-10-24T00:40:47;1.80;;;0.93;;
48423;SDS011;34232;42.502;26.014;2022-10-24T00:43:16;1.77;;;0.77;;
48423;SDS011;34232;42.502;26.014;2022-10-24T00:45:54;1.58;;;0.95;;
48423;SDS011;34232;42.502;26.014;2022-10-24T00:48:22;0.90;;;0.63;;
48423;SDS011;34232;42.502;26.014;2022-10-24T00:50:53;3.20;;;0.60;;
48423;SDS011;34232;42.502;26.014;2022-10-24T00:53:22;1.92;;;0.80;;
48423;SDS011;34232;42.502;26.014;2022-10-24T00:55:50;0.88;;;0.82;;
48423;SDS011;34232;42.502;26.014;2022-10-24T00:58:17;3.03;;;1.15;;
48423;SDS011;34232;42.502;26.014;2022-10-24T01:00:46;5.18;;;1.08;;
48423;SDS011;34232;42.502;26.014;2022-10-24T01:03:12;4.30;;;1.70;;
48423;SDS011;34232;42.502;26.014;2022-10-24T01:11:39;1.73;;;0.70;;
48423;SDS011;34232;42.502;26.014;2022-10-24T01:16:54;2.70;;;1.35;;
48423;SDS011;34232;42.502;26.014;2022-10-24T01:22:29;2.92;;;1.55;;
48423;SDS011;34232;42.502;26.014;2022-10-24T01:25:13;5.35;;;0.93;;
48423;SDS011;34232;42.502;26.014;2022-10-24T01:30:19;1.50;;;0.85;;
48423;SDS011;34232;42.502;26.014;2022-10-24T01:33:07;2.57;;;1.53;;
48423;SDS011;34232;42.502;26.014;2022-10-24T01:35:38;2.45;;;1.23;;
48423;SDS011;34232;42.502;26.014;2022-10-24T01:43:34;2.03;;;1.30;;
48423;SDS011;34232;42.502;26.014;2022-10-24T01:46:05;4.80;;;2.13;;
48423;SDS011;34232;42.502;26.014;2022-10-24T01:48:37;4.75;;;1.15;;
48423;SDS011;34232;42.502;26.014;2022-10-24T01:51:06;3.75;;;1.63;;
48423;SDS011;34232;42.502;26.014;2022-10-24T01:53:34;2.10;;;1.20;;
48423;SDS011;34232;42.502;26.014;2022-10-24T01:56:01;2.78;;;0.82;;
48423;SDS011;34232;42.502;26.014;2022-10-24T01:58:27;2.67;;;1.23;;
48423;SDS011;34232;42.502;26.014;2022-10-24T02:00:53;2.00;;;1.30;;
48423;SDS011;34232;42.502;26.014;2022-10-24T02:03:30;1.73;;;1.00;;
48423;SDS011;34232;42.502;26.014;2022-10-24T02:06:02;6.45;;;1.45;;
48423;SDS011;34232;42.502;26.014;2022-10-24T02:08:34;2.05;;;1.33;;
48423;SDS011;34232;42.502;26.014;2022-10-24T02:11:12;3.67;;;1.73;;
48423;SDS011;34232;42.502;26.014;2022-10-24T02:13:42;3.43;;;1.67;;
48423;SDS011;34232;42.502;26.014;2022-10-24T02:16:16;5.88;;;2.25;;
48423;SDS011;34232;42.502;26.014;2022-10-24T02:18:43;3.90;;;1.75;;
48423;SDS011;34232;42.502;26.014;2022-10-24T02:27:28;3.05;;;1.63;;
48423;SDS011;34232;42.502;26.014;2022-10-24T02:30:08;7.03;;;2.05;;
48423;SDS011;34232;42.502;26.014;2022-10-24T02:32:40;10.10;;;2.35;;
48423;SDS011;34232;42.502;26.014;2022-10-24T02:35:08;4.53;;;1.70;;
48423;SDS011;34232;42.502;26.014;2022-10-24T02:37:36;6.50;;;2.00;;
48423;SDS011;34232;42.502;26.014;2022-10-24T02:40:07;8.15;;;2.50;;
48423;SDS011;34232;42.502;26.014;2022-10-24T02:42:35;8.65;;;2.00;;
48423;SDS011;34232;42.502;26.014;2022-10-24T02:45:03;4.63;;;1.65;;
48423;SDS011;34232;42.502;26.014;2022-10-24T02:47:29;4.70;;;1.27;;
48423;SDS011;34232;42.502;26.014;2022-10-24T02:49:56;4.97;;;2.13;;
48423;SDS011;34232;42.502;26.014;2022-10-24T02:52:22;3.97;;;1.73;;
48423;SDS011;34232;42.502;26.014;2022-10-24T02:54:48;4.47;;;2.37;;
48423;SDS011;34232;42.502;26.014;2022-10-24T02:57:14;3.83;;;1.52;;
48423;SDS011;34232;42.502;26.014;2022-10-24T02:59:40;5.00;;;1.60;;
48423;SDS011;34232;42.502;26.014;2022-10-24T03:02:05;4.97;;;1.60;;
48423;SDS011;34232;42.502;26.014;2022-10-24T03:04:31;3.17;;;1.70;;
48423;SDS011;34232;42.502;26.014;2022-10-24T03:06:56;6.27;;;3.10;;
48423;SDS011;34232;42.502;26.014;2022-10-24T03:09:22;4.73;;;1.70;;
48423;SDS011;34232;42.502;26.014;2022-10-24T03:11:47;4.10;;;1.23;;
48423;SDS011;34232;42.502;26.014;2022-10-24T03:14:13;7.67;;;1.47;;
48423;SDS011;34232;42.502;26.014;2022-10-24T03:16:41;6.38;;;2.10;;
48423;SDS011;34232;42.502;26.014;2022-10-24T03:19:06;5.27;;;2.37;;
48423;SDS011;34232;42.502;26.014;2022-10-24T03:21:32;4.50;;;1.90;;
48423;SDS011;34232;42.502;26.014;2022-10-24T03:23:57;6.63;;;2.67;;
48423;SDS011;34232;42.502;26.014;2022-10-24T03:26:23;7.17;;;2.33;;
48423;SDS011;34232;42.502;26.014;2022-10-24T03:28:48;5.03;;;2.57;;
48423;SDS011;34232;42.502;26.014;2022-10-24T03:31:14;7.80;;;2.77;;
48423;SDS011;34232;42.502;26.014;2022-10-24T03:33:39;4.60;;;2.43;;
48423;SDS011;34232;42.502;26.014;2022-10-24T03:36:05;16.13;;;2.87;;
48423;SDS011;34232;42.502;26.014;2022-10-24T03:38:31;8.70;;;3.07;;
48423;SDS011;34232;42.502;26.014;2022-10-24T03:40:56;7.37;;;2.73;;
48423;SDS011;34232;42.502;26.014;2022-10-24T03:43:21;15.50;;;3.20;;
48423;SDS011;34232;42.502;26.014;2022-10-24T03:45:47;4.87;;;3.33;;
48423;SDS011;34232;42.502;26.014;2022-10-24T03:48:12;6.30;;;2.80;;
48423;SDS011;34232;42.502;26.014;2022-10-24T03:50:38;10.37;;;3.93;;
48423;SDS011;34232;42.502;26.014;2022-10-24T03:53:03;12.87;;;4.40;;
48423;SDS011;34232;42.502;26.014;2022-10-24T03:55:29;6.73;;;4.83;;
48423;SDS011;34232;42.502;26.014;2022-10-24T03:57:57;10.15;;;4.75;;
48423;SDS011;34232;42.502;26.014;2022-10-24T04:00:23;14.07;;;5.33;;
48423;SDS011;34232;42.502;26.014;2022-10-24T04:02:48;9.07;;;5.30;;
48423;SDS011;34232;42.502;26.014;2022-10-24T04:07:41;9.15;;;3.95;;
48423;SDS011;34232;42.502;26.014;2022-10-24T04:10:06;10.50;;;4.00;;
48423;SDS011;34232;42.502;26.014;2022-10-24T04:12:32;12.57;;;4.23;;
48423;SDS011;34232;42.502;26.014;2022-10-24T04:14:58;10.60;;;4.53;;
48423;SDS011;34232;42.502;26.014;2022-10-24T04:17:23;6.07;;;3.07;;
48423;SDS011;34232;42.502;26.014;2022-10-24T04:19:49;6.83;;;4.00;;
48423;SDS011;34232;42.502;26.014;2022-10-24T04:22:14;8.77;;;3.37;;
48423;SDS011;34232;42.502;26.014;2022-10-24T04:24:40;9.60;;;3.97;;
48423;SDS011;34232;42.502;26.014;2022-10-24T04:27:06;7.27;;;3.43;;
48423;SDS011;34232;42.502;26.014;2022-10-24T04:29:32;19.00;;;4.25;;
48423;SDS011;34232;42.502;26.014;2022-10-24T04:31:57;8.77;;;3.43;;
48423;SDS011;34232;42.502;26.014;2022-10-24T04:34:23;12.53;;;4.30;;
48423;SDS011;34232;42.502;26.014;2022-10-24T04:36:48;16.63;;;4.90;;
48423;SDS011;34232;42.502;26.014;2022-10-24T04:39:14;12.83;;;4.60;;
48423;SDS011;34232;42.502;26.014;2022-10-24T04:41:39;11.67;;;5.00;;
48423;SDS011;34232;42.502;26.014;2022-10-24T04:44:05;32.37;;;6.27;;
48423;SDS011;34232;42.502;26.014;2022-10-24T04:46:30;14.40;;;5.13;;
48423;SDS011;34232;42.502;26.014;2022-10-24T04:48:56;13.90;;;5.90;;
48423;SDS011;34232;42.502;26.014;2022-10-24T04:51:21;24.43;;;6.07;;
48423;SDS011;34232;42.502;26.014;2022-10-24T04:53:47;11.43;;;5.03;;
48423;SDS011;34232;42.502;26.014;2022-10-24T04:56:12;12.40;;;5.33;;
48423;SDS011;34232;42.502;26.014;2022-10-24T04:58:37;9.17;;;4.30;;
48423;SDS011;34232;42.502;26.014;2022-10-24T05:01:03;13.90;;;4.63;;
48423;SDS011;34232;42.502;26.014;2022-10-24T05:03:28;19.23;;;5.77;;
48423;SDS011;34232;42.502;26.014;2022-10-24T05:05:54;13.93;;;4.73;;
48423;SDS011;34232;42.502;26.014;2022-10-24T05:08:19;10.60;;;3.83;;
48423;SDS011;34232;42.502;26.014;2022-10-24T05:10:45;18.90;;;5.93;;
48423;SDS011;34232;42.502;26.014;2022-10-24T05:13:10;17.77;;;5.77;;
48423;SDS011;34232;42.502;26.014;2022-10-24T05:15:36;14.70;;;5.27;;
48423;SDS011;34232;42.502;26.014;2022-10-24T05:18:02;8.50;;;4.30;;
48423;SDS011;34232;42.502;26.014;2022-10-24T05:20:28;11.20;;;3.92;;
48423;SDS011;34232;42.502;26.014;2022-10-24T05:22:54;13.93;;;4.43;;
48423;SDS011;34232;42.502;26.014;2022-10-24T05:25:19;10.57;;;3.57;;
48423;SDS011;34232;42.502;26.014;2022-10-24T05:27:47;8.33;;;3.73;;
48423;SDS011;34232;42.502;26.014;2022-10-24T05:30:13;10.80;;;4.20;;
48423;SDS011;34232;42.502;26.014;2022-10-24T05:32:39;11.43;;;5.13;;
48423;SDS011;34232;42.502;26.014;2022-10-24T05:35:05;7.70;;;5.33;;
48423;SDS011;34232;42.502;26.014;2022-10-24T05:37:31;10.05;;;4.63;;
48423;SDS011;34232;42.502;26.014;2022-10-24T05:39:56;11.33;;;4.77;;
48423;SDS011;34232;42.502;26.014;2022-10-24T05:42:21;9.27;;;4.70;;
48423;SDS011;34232;42.502;26.014;2022-10-24T05:44:47;17.63;;;5.10;;
48423;SDS011;34232;42.502;26.014;2022-10-24T05:47:12;10.23;;;4.73;;
48423;SDS011;34232;42.502;26.014;2022-10-24T05:49:38;7.00;;;4.07;;
48423;SDS011;34232;42.502;26.014;2022-10-24T05:52:03;7.57;;;3.67;;
48423;SDS011;34232;42.502;26.014;2022-10-24T05:54:29;11.47;;;3.97;;
48423;SDS011;34232;42.502;26.014;2022-10-24T05:56:54;10.77;;;4.33;;
48423;SDS011;34232;42.502;26.014;2022-10-24T05:59:20;10.73;;;4.60;;
48423;SDS011;34232;42.502;26.014;2022-10-24T06:01:45;14.37;;;5.13;;
48423;SDS011;34232;42.502;26.014;2022-10-24T06:04:11;14.10;;;6.17;;
48423;SDS011;34232;42.502;26.014;2022-10-24T06:06:40;15.20;;;7.90;;
48423;SDS011;34232;42.502;26.014;2022-10-24T06:09:07;23.08;;;12.68;;
48423;SDS011;34232;42.502;26.014;2022-10-24T06:11:33;17.83;;;10.80;;
48423;SDS011;34232;42.502;26.014;2022-10-24T06:13:58;27.80;;;12.03;;
48423;SDS011;34232;42.502;26.014;2022-10-24T06:16:24;25.20;;;12.17;;
48423;SDS011;34232;42.502;26.014;2022-10-24T06:18:51;20.95;;;12.90;;
48423;SDS011;34232;42.502;26.014;2022-10-24T06:21:17;25.93;;;12.10;;
48423;SDS011;34232;42.502;26.014;2022-10-24T06:23:42;21.03;;;12.37;;
48423;SDS011;34232;42.502;26.014;2022-10-24T06:26:08;25.83;;;12.57;;
48423;SDS011;34232;42.502;26.014;2022-10-24T06:28:35;19.38;;;10.60;;
48423;SDS011;34232;42.502;26.014;2022-10-24T06:31:01;22.15;;;9.48;;
48423;SDS011;34232;42.502;26.014;2022-10-24T06:33:27;19.75;;;10.82;;
48423;SDS011;34232;42.502;26.014;2022-10-24T06:35:53;23.02;;;10.18;;
48423;SDS011;34232;42.502;26.014;2022-10-24T06:38:19;22.47;;;10.53;;
48423;SDS011;34232;42.502;26.014;2022-10-24T06:40:44;15.73;;;10.23;;
48423;SDS011;34232;42.502;26.014;2022-10-24T06:43:10;27.13;;;13.17;;
48423;SDS011;34232;42.502;26.014;2022-10-24T06:45:38;24.67;;;11.87;;
48423;SDS011;34232;42.502;26.014;2022-10-24T06:48:03;17.02;;;11.75;;
48423;SDS011;34232;42.502;26.014;2022-10-24T06:50:29;20.33;;;13.17;;
48423;SDS011;34232;42.502;26.014;2022-10-24T06:52:54;24.07;;;11.90;;
48423;SDS011;34232;42.502;26.014;2022-10-24T06:55:19;26.33;;;12.67;;
48423;SDS011;34232;42.502;26.014;2022-10-24T06:57:45;24.63;;;13.37;;
48423;SDS011;34232;42.502;26.014;2022-10-24T07:00:10;21.30;;;10.87;;
48423;SDS011;34232;42.502;26.014;2022-10-24T07:02:38;24.52;;;12.77;;
48423;SDS011;34232;42.502;26.014;2022-10-24T07:05:03;20.67;;;11.37;;
48423;SDS011;34232;42.502;26.014;2022-10-24T07:07:32;20.20;;;11.63;;
48423;SDS011;34232;42.502;26.014;2022-10-24T07:09:58;20.40;;;10.90;;
48423;SDS011;34232;42.502;26.014;2022-10-24T07:12:23;20.60;;;11.33;;
48423;SDS011;34232;42.502;26.014;2022-10-24T07:14:49;15.32;;;9.63;;
48423;SDS011;34232;42.502;26.014;2022-10-24T07:17:16;15.93;;;9.53;;
48423;SDS011;34232;42.502;26.014;2022-10-24T07:19:41;18.38;;;8.52;;
48423;SDS011;34232;42.502;26.014;2022-10-24T07:22:07;13.93;;;8.47;;
48423;SDS011;34232;42.502;26.014;2022-10-24T07:24:33;17.63;;;7.70;;
48423;SDS011;34232;42.502;26.014;2022-10-24T07:26:59;19.13;;;8.33;;
48423;SDS011;34232;42.502;26.014;2022-10-24T07:29:24;22.27;;;9.00;;
48423;SDS011;34232;42.502;26.014;2022-10-24T07:31:50;14.00;;;7.63;;
48423;SDS011;34232;42.502;26.014;2022-10-24T07:34:16;31.67;;;8.20;;
48423;SDS011;34232;42.502;26.014;2022-10-24T07:36:42;17.35;;;8.07;;
48423;SDS011;34232;42.502;26.014;2022-10-24T07:39:07;13.80;;;6.87;;
48423;SDS011;34232;42.502;26.014;2022-10-24T07:41:35;17.13;;;8.43;;
48423;SDS011;34232;42.502;26.014;2022-10-24T07:44:04;14.88;;;6.85;;
48423;SDS011;34232;42.502;26.014;2022-10-24T07:46:30;15.57;;;7.80;;
48423;SDS011;34232;42.502;26.014;2022-10-24T07:48:55;10.93;;;6.37;;
48423;SDS011;34232;42.502;26.014;2022-10-24T07:51:21;9.20;;;6.20;;
48423;SDS011;34232;42.502;26.014;2022-10-24T07:53:47;16.90;;;6.87;;
48423;SDS011;34232;42.502;26.014;2022-10-24T07:56:13;15.48;;;6.50;;
48423;SDS011;34232;42.502;26.014;2022-10-24T07:58:42;11.70;;;6.70;;
48423;SDS011;34232;42.502;26.014;2022-10-24T08:01:10;16.95;;;7.97;;
48423;SDS011;34232;42.502;26.014;2022-10-24T08:03:39;12.00;;;5.78;;
48423;SDS011;34232;42.502;26.014;2022-10-24T08:06:08;6.43;;;3.77;;
48423;SDS011;34232;42.502;26.014;2022-10-24T08:08:36;8.65;;;4.82;;
48423;SDS011;34232;42.502;26.014;2022-10-24T08:11:12;12.13;;;4.73;;
48423;SDS011;34232;42.502;26.014;2022-10-24T08:13:41;13.77;;;5.93;;
48423;SDS011;34232;42.502;26.014;2022-10-24T08:16:08;13.50;;;5.87;;
48423;SDS011;34232;42.502;26.014;2022-10-24T08:18:35;12.20;;;5.20;;
48423;SDS011;34232;42.502;26.014;2022-10-24T08:21:03;4.45;;;2.65;;
48423;SDS011;34232;42.502;26.014;2022-10-24T08:23:30;8.75;;;2.80;;
48423;SDS011;34232;42.502;26.014;2022-10-24T08:25:56;7.50;;;3.03;;
48423;SDS011;34232;42.502;26.014;2022-10-24T08:28:22;56.07;;;7.70;;
48423;SDS011;34232;42.502;26.014;2022-10-24T08:30:54;6.37;;;3.40;;
48423;SDS011;34232;42.502;26.014;2022-10-24T08:33:24;6.83;;;2.83;;
48423;SDS011;34232;42.502;26.014;2022-10-24T08:35:57;3.53;;;1.83;;
48423;SDS011;34232;42.502;26.014;2022-10-24T08:38:24;5.18;;;3.40;;
48423;SDS011;34232;42.502;26.014;2022-10-24T08:40:50;2.85;;;2.28;;
48423;SDS011;34232;42.502;26.014;2022-10-24T08:43:16;2.27;;;1.80;;
48423;SDS011;34232;42.502;26.014;2022-10-24T08:48:39;7.75;;;1.67;;
48423;SDS011;34232;42.502;26.014;2022-10-24T08:54:02;5.38;;;2.03;;
48423;SDS011;34232;42.502;26.014;2022-10-24T08:56:31;0.95;;;0.85;;
48423;SDS011;34232;42.502;26.014;2022-10-24T08:58:58;1.33;;;0.85;;
48423;SDS011;34232;42.502;26.014;2022-10-24T09:03:54;2.35;;;1.50;;
48423;SDS011;34232;42.502;26.014;2022-10-24T09:06:24;2.53;;;1.33;;
48423;SDS011;34232;42.502;26.014;2022-10-24T09:08:57;3.33;;;1.20;;
48423;SDS011;34232;42.502;26.014;2022-10-24T09:14:14;5.43;;;2.72;;
48423;SDS011;34232;42.502;26.014;2022-10-24T09:16:41;3.42;;;1.25;;
48423;SDS011;34232;42.502;26.014;2022-10-24T09:19:14;3.17;;;1.30;;
48423;SDS011;34232;42.502;26.014;2022-10-24T09:21:42;1.52;;;1.05;;
48423;SDS011;34232;42.502;26.014;2022-10-24T09:24:15;9.07;;;2.08;;
48423;SDS011;34232;42.502;26.014;2022-10-24T09:26:46;0.90;;;0.52;;
48423;SDS011;34232;42.502;26.014;2022-10-24T09:29:11;1.50;;;1.30;;
48423;SDS011;34232;42.502;26.014;2022-10-24T09:31:36;2.77;;;0.87;;
48423;SDS011;34232;42.502;26.014;2022-10-24T09:34:02;2.45;;;1.10;;
48423;SDS011;34232;42.502;26.014;2022-10-24T09:36:28;5.00;;;1.50;;
48423;SDS011;34232;42.502;26.014;2022-10-24T09:41:23;2.88;;;1.40;;
48423;SDS011;34232;42.502;26.014;2022-10-24T09:43:53;5.50;;;1.20;;
48423;SDS011;34232;42.502;26.014;2022-10-24T09:46:39;6.95;;;1.90;;
48423;SDS011;34232;42.502;26.014;2022-10-24T09:51:49;1.70;;;1.20;;
48423;SDS011;34232;42.502;26.014;2022-10-24T09:54:26;4.63;;;1.25;;
48423;SDS011;34232;42.502;26.014;2022-10-24T10:04:35;2.22;;;0.82;;
48423;SDS011;34232;42.502;26.014;2022-10-24T10:07:08;2.92;;;1.20;;
48423;SDS011;34232;42.502;26.014;2022-10-24T10:09:57;3.67;;;0.95;;
48423;SDS011;34232;42.502;26.014;2022-10-24T10:14:52;2.38;;;1.13;;
48423;SDS011;34232;42.502;26.014;2022-10-24T10:17:22;3.35;;;0.80;;
48423;SDS011;34232;42.502;26.014;2022-10-24T10:19:53;7.93;;;1.15;;
48423;SDS011;34232;42.502;26.014;2022-10-24T10:22:23;4.10;;;1.55;;
48423;SDS011;34232;42.502;26.014;2022-10-24T10:24:57;1.58;;;0.80;;
48423;SDS011;34232;42.502;26.014;2022-10-24T10:27:37;1.70;;;0.95;;
48423;SDS011;34232;42.502;26.014;2022-10-24T10:35:13;2.58;;;1.50;;
48423;SDS011;34232;42.502;26.014;2022-10-24T10:37:47;2.50;;;0.70;;
48423;SDS011;34232;42.502;26.014;2022-10-24T10:49:08;5.15;;;1.10;;
48423;SDS011;34232;42.502;26.014;2022-10-24T10:51:41;2.35;;;0.95;;
48423;SDS011;34232;42.502;26.014;2022-10-24T10:57:23;4.55;;;1.67;;
48423;SDS011;34232;42.502;26.014;2022-10-24T11:02:33;2.67;;;0.80;;
48423;SDS011;34232;42.502;26.014;2022-10-24T11:05:22;2.72;;;2.45;;
48423;SDS011;34232;42.502;26.014;2022-10-24T11:08:28;3.35;;;1.00;;
48423;SDS011;34232;42.502;26.014;2022-10-24T11:11:07;11.63;;;2.15;;
48423;SDS011;34232;42.502;26.014;2022-10-24T11:13:42;7.93;;;1.40;;
48423;SDS011;34232;42.502;26.014;2022-10-24T11:16:15;0.98;;;0.77;;
48423;SDS011;34232;42.502;26.014;2022-10-24T11:18:46;0.73;;;0.50;;
48423;SDS011;34232;42.502;26.014;2022-10-24T11:21:15;2.00;;;0.65;;
48423;SDS011;34232;42.502;26.014;2022-10-24T11:24:02;4.88;;;1.20;;
48423;SDS011;34232;42.502;26.014;2022-10-24T11:32:33;3.65;;;1.42;;
48423;SDS011;34232;42.502;26.014;2022-10-24T11:35:17;0.60;;;0.55;;
48423;SDS011;34232;42.502;26.014;2022-10-24T11:37:44;3.15;;;0.70;;
48423;SDS011;34232;42.502;26.014;2022-10-24T11:40:24;1.80;;;0.75;;
48423;SDS011;34232;42.502;26.014;2022-10-24T11:42:55;2.78;;;1.25;;
48423;SDS011;34232;42.502;26.014;2022-10-24T11:46:00;1.63;;;1.40;;
48423;SDS011;34232;42.502;26.014;2022-10-24T11:48:44;1.90;;;0.85;;
48423;SDS011;34232;42.502;26.014;2022-10-24T11:51:42;0.63;;;0.47;;
48423;SDS011;34232;42.502;26.014;2022-10-24T11:57:24;1.27;;;0.75;;
48423;SDS011;34232;42.502;26.014;2022-10-24T11:59:52;10.73;;;2.35;;
48423;SDS011;34232;42.502;26.014;2022-10-24T12:07:54;0.40;;;0.28;;
48423;SDS011;34232;42.502;26.014;2022-10-24T12:18:57;12.48;;;3.20;;
48423;SDS011;34232;42.502;26.014;2022-10-24T12:21:26;2.15;;;0.82;;
48423;SDS011;34232;42.502;26.014;2022-10-24T12:23:59;17.33;;;3.45;;
48423;SDS011;34232;42.502;26.014;2022-10-24T12:29:02;2.95;;;0.75;;
48423;SDS011;34232;42.502;26.014;2022-10-24T12:31:34;3.08;;;0.95;;
48423;SDS011;34232;42.502;26.014;2022-10-24T12:39:46;1.20;;;0.80;;
48423;SDS011;34232;42.502;26.014;2022-10-24T12:49:55;2.03;;;1.07;;
48423;SDS011;34232;42.502;26.014;2022-10-24T12:54:54;8.77;;;3.08;;
48423;SDS011;34232;42.502;26.014;2022-10-24T12:57:20;6.10;;;1.52;;
48423;SDS011;34232;42.502;26.014;2022-10-24T12:59:50;5.95;;;1.75;;
48423;SDS011;34232;42.502;26.014;2022-10-24T13:10:50;1.38;;;1.27;;
48423;SDS011;34232;42.502;26.014;2022-10-24T13:23:44;5.20;;;0.85;;
48423;SDS011;34232;42.502;26.014;2022-10-24T13:31:50;3.05;;;1.15;;
48423;SDS011;34232;42.502;26.014;2022-10-24T13:34:21;1.17;;;0.63;;
48423;SDS011;34232;42.502;26.014;2022-10-24T13:36:50;3.15;;;0.45;;
48423;SDS011;34232;42.502;26.014;2022-10-24T13:39:23;28.42;;;10.65;;
48423;SDS011;34232;42.502;26.014;2022-10-24T13:41:56;52.00;;;5.15;;
48423;SDS011;34232;42.502;26.014;2022-10-24T13:44:42;4.32;;;0.80;;
48423;SDS011;34232;42.502;26.014;2022-10-24T13:47:13;3.10;;;0.80;;
48423;SDS011;34232;42.502;26.014;2022-10-24T13:52:39;3.53;;;0.73;;
48423;SDS011;34232;42.502;26.014;2022-10-24T13:57:49;11.50;;;7.23;;
48423;SDS011;34232;42.502;26.014;2022-10-24T14:00:51;14.65;;;7.05;;
48423;SDS011;34232;42.502;26.014;2022-10-24T14:03:27;9.82;;;1.92;;
48423;SDS011;34232;42.502;26.014;2022-10-24T14:05:55;6.72;;;1.80;;
48423;SDS011;34232;42.502;26.014;2022-10-24T14:10:56;1.95;;;1.17;;
48423;SDS011;34232;42.502;26.014;2022-10-24T14:13:26;5.95;;;1.30;;
48423;SDS011;34232;42.502;26.014;2022-10-24T14:15:54;9.70;;;8.05;;
48423;SDS011;34232;42.502;26.014;2022-10-24T14:18:24;17.13;;;10.70;;
48423;SDS011;34232;42.502;26.014;2022-10-24T14:20:53;4.55;;;1.15;;
48423;SDS011;34232;42.502;26.014;2022-10-24T14:28:46;4.32;;;1.02;;
48423;SDS011;34232;42.502;26.014;2022-10-24T14:33:53;10.15;;;2.00;;
48423;SDS011;34232;42.502;26.014;2022-10-24T14:36:23;10.93;;;1.83;;
48423;SDS011;34232;42.502;26.014;2022-10-24T14:38:52;8.27;;;1.30;;
48423;SDS011;34232;42.502;26.014;2022-10-24T14:41:22;7.07;;;1.58;;
48423;SDS011;34232;42.502;26.014;2022-10-24T14:43:51;3.83;;;0.77;;
48423;SDS011;34232;42.502;26.014;2022-10-24T14:51:51;5.00;;;1.98;;
48423;SDS011;34232;42.502;26.014;2022-10-24T14:54:20;10.30;;;1.85;;
48423;SDS011;34232;42.502;26.014;2022-10-24T14:56:48;15.52;;;2.33;;
48423;SDS011;34232;42.502;26.014;2022-10-24T14:59:35;6.28;;;1.73;;
48423;SDS011;34232;42.502;26.014;2022-10-24T15:02:04;4.35;;;1.33;;
48423;SDS011;34232;42.502;26.014;2022-10-24T15:04:39;10.80;;;1.45;;
48423;SDS011;34232;42.502;26.014;2022-10-24T15:12:30;11.05;;;1.98;;
48423;SDS011;34232;42.502;26.014;2022-10-24T15:17:42;10.25;;;2.95;;
48423;SDS011;34232;42.502;26.014;2022-10-24T15:20:08;9.68;;;0.80;;
48423;SDS011;34232;42.502;26.014;2022-10-24T15:22:38;7.10;;;1.50;;
48423;SDS011;34232;42.502;26.014;2022-10-24T15:25:05;19.10;;;3.05;;
48423;SDS011;34232;42.502;26.014;2022-10-24T15:27:42;19.65;;;3.22;;
48423;SDS011;34232;42.502;26.014;2022-10-24T15:30:31;19.35;;;4.47;;
48423;SDS011;34232;42.502;26.014;2022-10-24T15:32:57;8.10;;;2.50;;
48423;SDS011;34232;42.502;26.014;2022-10-24T15:35:24;11.13;;;1.58;;
48423;SDS011;34232;42.502;26.014;2022-10-24T15:40:33;28.67;;;9.80;;
48423;SDS011;34232;42.502;26.014;2022-10-24T15:42:59;23.80;;;4.25;;
48423;SDS011;34232;42.502;26.014;2022-10-24T15:45:25;30.55;;;8.57;;
48423;SDS011;34232;42.502;26.014;2022-10-24T15:47:51;25.75;;;8.63;;
48423;SDS011;34232;42.502;26.014;2022-10-24T15:50:21;26.35;;;10.00;;
48423;SDS011;34232;42.502;26.014;2022-10-24T15:52:49;21.95;;;10.15;;
48423;SDS011;34232;42.502;26.014;2022-10-24T15:55:18;6.65;;;3.20;;
48423;SDS011;34232;42.502;26.014;2022-10-24T15:57:45;5.40;;;1.67;;
48423;SDS011;34232;42.502;26.014;2022-10-24T16:00:12;6.70;;;2.17;;
48423;SDS011;34232;42.502;26.014;2022-10-24T16:02:40;6.65;;;1.38;;
48423;SDS011;34232;42.502;26.014;2022-10-24T16:05:09;3.60;;;1.52;;
48423;SDS011;34232;42.502;26.014;2022-10-24T16:07:38;8.68;;;1.75;;
48423;SDS011;34232;42.502;26.014;2022-10-24T16:10:04;4.47;;;1.80;;
48423;SDS011;34232;42.502;26.014;2022-10-24T16:12:30;10.20;;;3.03;;
48423;SDS011;34232;42.502;26.014;2022-10-24T16:14:55;9.50;;;3.40;;
48423;SDS011;34232;42.502;26.014;2022-10-24T16:17:20;9.57;;;4.07;;
48423;SDS011;34232;42.502;26.014;2022-10-24T16:19:46;7.80;;;4.20;;
48423;SDS011;34232;42.502;26.014;2022-10-24T16:22:11;7.40;;;2.43;;
48423;SDS011;34232;42.502;26.014;2022-10-24T16:24:37;6.60;;;3.27;;
48423;SDS011;34232;42.502;26.014;2022-10-24T16:27:02;8.30;;;2.50;;
48423;SDS011;34232;42.502;26.014;2022-10-24T16:29:28;6.33;;;1.97;;
48423;SDS011;34232;42.502;26.014;2022-10-24T16:31:54;8.52;;;2.35;;
48423;SDS011;34232;42.502;26.014;2022-10-24T16:34:20;6.27;;;2.80;;
48423;SDS011;34232;42.502;26.014;2022-10-24T16:36:45;15.40;;;3.77;;
48423;SDS011;34232;42.502;26.014;2022-10-24T16:39:11;10.40;;;2.90;;
48423;SDS011;34232;42.502;26.014;2022-10-24T16:41:38;5.07;;;3.00;;
48423;SDS011;34232;42.502;26.014;2022-10-24T16:44:09;10.68;;;3.85;;
48423;SDS011;34232;42.502;26.014;2022-10-24T16:46:34;6.30;;;3.47;;
48423;SDS011;34232;42.502;26.014;2022-10-24T16:48:59;10.50;;;3.13;;
48423;SDS011;34232;42.502;26.014;2022-10-24T16:51:26;12.30;;;4.47;;
48423;SDS011;34232;42.502;26.014;2022-10-24T16:53:59;9.65;;;4.53;;
48423;SDS011;34232;42.502;26.014;2022-10-24T16:56:25;8.80;;;4.05;;
48423;SDS011;34232;42.502;26.014;2022-10-24T16:58:51;15.97;;;3.97;;
48423;SDS011;34232;42.502;26.014;2022-10-24T17:01:16;13.93;;;3.87;;
48423;SDS011;34232;42.502;26.014;2022-10-24T17:03:42;7.83;;;3.20;;
48423;SDS011;34232;42.502;26.014;2022-10-24T17:06:11;11.60;;;3.85;;
48423;SDS011;34232;42.502;26.014;2022-10-24T17:08:37;9.95;;;3.63;;
48423;SDS011;34232;42.502;26.014;2022-10-24T17:11:03;8.13;;;4.15;;
48423;SDS011;34232;42.502;26.014;2022-10-24T17:13:29;12.15;;;5.00;;
48423;SDS011;34232;42.502;26.014;2022-10-24T17:15:55;16.80;;;4.00;;
48423;SDS011;34232;42.502;26.014;2022-10-24T17:18:20;13.15;;;4.28;;
48423;SDS011;34232;42.502;26.014;2022-10-24T17:20:47;11.45;;;4.40;;
48423;SDS011;34232;42.502;26.014;2022-10-24T17:23:15;27.92;;;5.95;;
48423;SDS011;34232;42.502;26.014;2022-10-24T17:25:45;23.35;;;4.82;;
48423;SDS011;34232;42.502;26.014;2022-10-24T17:28:12;23.23;;;4.93;;
48423;SDS011;34232;42.502;26.014;2022-10-24T17:30:38;13.23;;;4.10;;